Time;durP1;ratioP1;P1;durP2;ratioP2;P2;SDS_P1;SDS_P2;PMS_P1;PMS_P2;Temp;Humidity;BMP_temperature;BMP_pressure;BME280_temperature;BME280_humidity;BME280_pressure;Samples;Min_cycle;Max_cycle;Signal;HPM_P1;HPM_P2
2024/02/28 00:02:06;;;;;;;;;10.50;7.75;;;;;16.07;68.56;101332.50;146633;589;45016;-70
2024/02/28 00:05:13;;;;;;;;;8.00;7.00;;;;;16.08;68.23;101331.69;146629;611;45021;-71
2024/02/28 00:08:17;;;;;;;;;10.00;6.33;;;;;16.10;68.89;101335.22;146633;609;46012;-70
2024/02/28 00:11:14;;;;;;;;;9.25;8.00;;;;;16.09;68.78;101336.97;146630;564;46012;-69
2024/02/28 00:14:22;;;;;;;;;12.00;11.50;;;;;16.10;68.44;101348.31;146611;615;46012;-69
2024/02/28 00:17:25;;;;;;;;;14.25;12.00;;;;;16.08;68.66;101339.53;146609;596;46020;-71
2024/02/28 00:20:27;;;;;;;;;16.25;15.75;;;;;16.06;69.54;101342.06;146606;624;46018;-69
2024/02/28 00:23:22;;;;;;;;;15.75;14.50;;;;;16.05;69.46;101336.81;146607;570;46010;-68
2024/02/28 00:26:22;;;;;;;;;15.00;12.00;;;;;16.02;69.26;101337.56;146603;569;46013;-70
2024/02/28 00:29:24;;;;;;;;;18.25;17.00;;;;;16.00;69.63;101334.00;146606;600;46010;-70
2024/02/28 00:32:22;;;;;;;;;17.00;14.25;;;;;16.00;69.87;101335.72;146603;699;46012;-68
2024/02/28 00:35:23;;;;;;;;;16.75;15.25;;;;;15.98;69.74;101338.28;146603;570;47012;-69
2024/02/28 00:38:27;;;;;;;;;15.50;13.50;;;;;15.90;70.41;101332.75;146604;578;47012;-67
2024/02/28 00:41:20;;;;;;;;;15.75;13.00;;;;;15.82;70.45;101334.16;146608;657;46020;-69
2024/02/28 00:44:20;;;;;;;;;16.50;14.25;;;;;15.76;71.00;101333.03;146604;633;46914;-70
2024/02/28 00:47:24;;;;;;;;;12.00;12.00;;;;;15.68;70.77;101330.12;146605;739;46020;-71
2024/02/28 00:50:37;;;;;;;;;15.50;12.25;;;;;15.65;70.52;101337.78;146603;704;46914;-70
2024/02/28 00:53:32;;;;;;;;;15.50;14.00;;;;;15.64;71.19;101334.31;146607;645;46010;-70
2024/02/28 00:56:39;;;;;;;;;14.50;12.25;;;;;15.65;71.16;101343.91;146604;602;47014;-70
2024/02/28 00:59:36;;;;;;;;;14.00;12.00;;;;;15.65;71.86;101341.31;146610;699;46020;-71
2024/02/28 01:02:44;;;;;;;;;15.75;13.50;;;;;15.61;71.46;101333.28;146604;564;46034;-70
2024/02/28 01:05:47;;;;;;;;;15.00;13.50;;;;;15.69;71.65;101339.72;146601;689;46021;-68
2024/02/28 01:08:46;;;;;;;;;14.75;13.25;;;;;15.70;71.52;101338.91;146605;600;46016;-69
2024/02/28 01:11:48;;;;;;;;;15.00;14.00;;;;;15.69;71.74;101337.12;146610;571;46029;-69
2024/02/28 01:14:45;;;;;;;;;12.50;11.25;;;;;15.67;72.74;101349.25;146605;581;47012;-69
2024/02/28 01:17:45;;;;;;;;;10.33;10.00;;;;;15.60;72.54;101344.56;146611;579;46029;-70
2024/02/28 01:20:38;;;;;;;;;12.00;11.50;;;;;15.54;72.37;101337.34;146606;613;46014;-73
2024/02/28 01:23:37;;;;;;;;;14.25;11.00;;;;;15.50;72.90;101342.41;146606;597;46020;-71
2024/02/28 01:26:39;;;;;;;;;10.00;9.00;;;;;15.43;73.14;101343.88;146606;648;46033;-70
2024/02/28 01:29:31;;;;;;;;;8.33;8.00;;;;;15.38;73.02;101353.22;146615;563;46020;-71
2024/02/28 01:32:39;;;;;;;;;10.25;9.25;;;;;15.35;73.11;101347.88;146610;586;46017;-71
2024/02/28 01:35:31;;;;;;;;;13.00;11.00;;;;;15.33;73.17;101354.78;146601;671;46010;-72
2024/02/28 01:38:35;;;;;;;;;15.50;13.25;;;;;15.33;73.86;101354.78;146603;691;46012;-69
2024/02/28 01:41:34;;;;;;;;;10.50;7.50;;;;;15.30;73.73;101352.03;146603;631;46914;-68
2024/02/28 01:44:53;;;;;;;;;14.00;12.00;;;;;15.31;73.17;101353.81;146612;660;46012;-68
2024/02/28 01:48:25;;;;;;;;;13.00;11.25;;;;;11.49;72.27;100681.25;146611;601;46010;-69
2024/02/28 01:51:20;;;;;;;;;11.00;9.00;;;;;15.34;73.89;101347.00;146607;647;46016;-73
2024/02/28 01:54:29;;;;;;;;;7.00;7.00;;;;;15.30;73.71;101338.97;146615;575;46021;-73
2024/02/28 01:57:29;;;;;;;;;8.33;6.67;;;;;15.30;73.23;101341.59;146609;682;46927;-74
2024/02/28 02:00:26;;;;;;;;;7.00;7.00;;;;;15.24;74.04;101340.50;146618;599;46010;-75
2024/02/28 02:03:25;;;;;;;;;8.00;6.00;;;;;15.25;73.57;101341.38;146608;638;46017;-76
2024/02/28 02:06:41;;;;;;;;;9.00;6.67;;;;;15.22;73.97;101331.69;146605;653;46010;-76
2024/02/28 02:09:40;;;;;;;;;10.67;8.67;;;;;15.20;73.64;101327.22;146607;596;46016;-77
2024/02/28 02:12:43;;;;;;;;;11.00;7.67;;;;;15.20;74.08;101324.59;146620;601;46020;-74
2024/02/28 02:15:41;;;;;;;;;10.00;10.00;;;;;15.19;74.29;101322.84;146614;617;46016;-70
2024/02/28 02:18:40;;;;;;;;;10.00;10.00;;;;;15.19;74.24;101318.50;146612;586;46011;-71
2024/02/28 02:21:45;;;;;;;;;6.00;6.00;;;;;13.60;74.43;101035.97;146611;637;46016;-76
2024/02/28 02:24:39;;;;;;;;;7.33;6.00;;;;;15.17;74.63;101314.94;146620;646;46010;-76
2024/02/28 02:27:41;;;;;;;;;5.67;5.67;;;;;15.17;74.64;101319.25;146616;667;45912;-75
2024/02/28 02:30:40;;;;;;;;;7.00;6.00;;;;;15.18;74.57;101318.44;146617;569;46020;-69
2024/02/28 02:33:32;;;;;;;;;6.00;5.00;;;;;15.19;74.94;101318.50;146614;629;45915;-74
2024/02/28 02:36:26;;;;;;;;;6.33;6.00;;;;;15.20;74.87;101315.06;146600;613;47010;-73
2024/02/28 02:39:29;;;;;;;;;8.00;8.00;;;;;15.19;75.31;101321.09;146611;569;46016;-73
2024/02/28 02:42:33;;;;;;;;;9.67;8.00;;;;;15.16;74.92;101323.59;146617;657;46047;-75
2024/02/28 02:45:37;;;;;;;;;8.67;8.33;;;;;15.17;75.14;101329.69;146613;581;47913;-74
2024/02/28 02:48:35;;;;;;;;;8.67;8.00;;;;;15.20;74.85;101329.84;146618;581;47010;-73
2024/02/28 02:51:44;;;;;;;;;7.00;5.00;;;;;15.22;74.74;101329.06;146614;595;46016;-73
2024/02/28 02:54:40;;;;;;;;;9.00;8.33;;;;;15.26;75.49;101337.94;146617;601;46010;-74
2024/02/28 02:57:43;;;;;;;;;7.67;5.67;;;;;15.28;75.17;101333.66;146611;566;47012;-73
2024/02/28 03:00:36;;;;;;;;;5.67;5.33;;;;;15.34;75.14;101340.88;146617;574;46020;-73
2024/02/28 03:03:31;;;;;;;;;10.00;9.00;;;;;15.40;74.89;101333.28;146611;603;46016;-74
2024/02/28 03:06:32;;;;;;;;;10.00;9.25;;;;;15.43;74.83;101336.91;146604;557;47020;-72
2024/02/28 03:09:33;;;;;;;;;15.00;9.75;;;;;15.44;74.53;101332.59;146613;661;46013;-71
2024/02/28 03:12:50;;;;;;;;;11.00;9.67;;;;;15.47;73.91;101325.75;146615;625;47032;-72
2024/02/28 03:15:48;;;;;;;;;10.00;9.75;;;;;15.51;74.13;101326.75;146608;576;47016;-72
2024/02/28 03:18:43;;;;;;;;;12.75;9.00;;;;;15.50;74.12;101322.38;146614;690;47020;-70
2024/02/28 03:21:44;;;;;;;;;9.33;9.00;;;;;15.51;73.41;101328.50;146613;581;46025;-71
2024/02/28 03:24:43;;;;;;;;;8.50;8.50;;;;;15.48;73.47;101329.25;146615;580;46026;-75
2024/02/28 03:28:11;;;;;;;;;7.00;7.00;;;;;15.47;73.63;101335.31;146610;571;47012;-74
2024/02/28 03:31:11;;;;;;;;;9.00;9.00;;;;;14.01;73.92;101078.56;146618;589;46020;-74
2024/02/28 03:34:09;;;;;;;;;10.00;7.67;;;;;15.41;74.29;101335.06;146611;644;46016;-71
2024/02/28 03:37:14;;;;;;;;;11.50;9.25;;;;;15.38;74.44;101329.72;146604;620;46020;-71
2024/02/28 03:40:24;;;;;;;;;21.50;18.00;;;;;15.39;74.66;101331.50;146607;563;47012;-71
2024/02/28 03:43:29;;;;;;;;;23.75;23.00;;;;;15.38;75.19;101330.59;146608;694;46020;-73
2024/02/28 03:46:25;;;;;;;;;10.75;8.75;;;;;15.36;75.09;101334.91;146604;626;47014;-72
2024/02/28 03:49:29;;;;;;;;;14.00;12.75;;;;;15.35;74.06;101330.47;146618;680;46020;-73
2024/02/28 03:52:29;;;;;;;;;13.00;12.25;;;;;15.34;74.34;101339.16;146604;592;46916;-73
2024/02/28 03:55:28;;;;;;;;;10.00;8.00;;;;;15.33;75.23;101333.88;146610;639;46020;-73
2024/02/28 03:58:30;;;;;;;;;9.00;8.33;;;;;15.28;75.61;101332.78;146610;573;46034;-70
2024/02/28 04:01:31;;;;;;;;;9.67;7.67;;;;;15.24;75.49;101332.66;146618;590;46010;-70
2024/02/28 04:04:33;;;;;;;;;8.00;8.00;;;;;15.21;75.07;101332.53;146614;663;46012;-72
2024/02/28 04:07:34;;;;;;;;;9.00;9.00;;;;;15.20;75.29;101333.38;146602;644;46011;-68
2024/02/28 04:10:38;;;;;;;;;10.75;9.75;;;;;15.20;75.37;101338.59;146610;644;46016;-71
2024/02/28 04:13:36;;;;;;;;;9.25;9.25;;;;;15.19;75.94;101346.34;146639;571;45010;-75
2024/02/28 04:16:31;;;;;;;;;9.25;8.75;;;;;15.18;76.01;101344.56;146633;599;45915;-75
2024/02/28 04:19:39;;;;;;;;;17.50;13.25;;;;;15.19;76.26;101348.97;146633;663;46010;-79
2024/02/28 04:22:31;;;;;;;;;14.50;13.00;;;;;15.14;76.06;101350.47;146632;569;45916;-74
2024/02/28 04:25:26;;;;;;;;;18.00;17.00;;;;;15.09;76.44;101354.63;146634;648;45020;-75
2024/02/28 04:28:29;;;;;;;;;20.00;16.00;;;;;13.53;77.31;101096.47;146633;617;45016;-75
2024/02/28 04:31:22;;;;;;;;;20.50;16.00;;;;;14.96;77.81;101359.31;146630;570;45021;-74
2024/02/28 04:34:36;;;;;;;;;15.50;13.50;;;;;11.22;76.23;100712.03;146633;563;45916;-76
2024/02/28 04:37:41;;;;;;;;;14.50;11.00;;;;;14.89;77.80;101361.56;146629;625;47010;-75
2024/02/28 04:40:38;;;;;;;;;10.75;10.75;;;;;14.85;77.33;101359.66;146633;627;46012;-75
2024/02/28 04:43:33;;;;;;;;;19.75;18.25;;;;;14.82;78.24;101363.03;146634;637;45020;-76
2024/02/28 04:46:44;;;;;;;;;20.75;18.25;;;;;14.79;77.65;101363.78;146635;576;45012;-75
2024/02/28 04:49:46;;;;;;;;;13.25;12.25;;;;;14.82;77.66;101363.03;146637;696;45020;-71
2024/02/28 04:52:50;;;;;;;;;12.25;10.75;;;;;14.85;77.09;101373.59;146628;613;46035;-70
2024/02/28 04:55:50;;;;;;;;;16.50;16.25;;;;;14.91;77.15;101376.50;146637;708;45010;-68
2024/02/28 04:58:47;;;;;;;;;24.75;20.00;;;;;14.94;77.74;101375.75;146630;700;45916;-67
2024/02/28 05:01:45;;;;;;;;;15.75;14.25;;;;;14.97;77.33;101381.97;146632;595;47010;-65
2024/02/28 05:04:38;;;;;;;;;18.25;15.75;;;;;14.98;77.43;101385.47;146632;582;46916;-69
2024/02/28 05:07:42;;;;;;;;;15.25;14.00;;;;;14.99;77.06;101384.69;146630;574;45011;-69
2024/02/28 05:10:38;;;;;;;;;13.25;12.00;;;;;14.99;77.88;101389.91;146632;715;45016;-69
2024/02/28 05:13:35;;;;;;;;;16.75;13.00;;;;;14.99;77.39;101382.97;146607;581;46020;-69
2024/02/28 05:16:27;;;;;;;;;19.50;16.50;;;;;15.00;77.28;101386.44;146602;581;46012;-67
2024/02/28 05:19:33;;;;;;;;;10.00;10.00;;;;;15.02;78.08;101387.44;146609;698;46020;-68
2024/02/28 05:22:40;;;;;;;;;13.75;13.00;;;;;14.98;77.75;101383.78;146604;588;46012;-69
2024/02/28 05:25:50;;;;;;;;;27.75;25.50;;;;;14.98;77.27;101390.69;146608;611;46031;-68
2024/02/28 05:28:47;;;;;;;;;21.00;18.00;;;;;14.98;77.86;101390.69;146607;611;46017;-67
2024/02/28 05:31:44;;;;;;;;;26.00;23.25;;;;;15.04;77.82;101398.81;146608;604;46020;-68
2024/02/28 05:34:42;;;;;;;;;14.00;11.00;;;;;15.08;77.99;101395.53;146603;649;47014;-73
2024/02/28 05:37:35;;;;;;;;;17.00;13.25;;;;;15.13;77.75;101407.03;146603;578;46021;-70
2024/02/28 05:40:36;;;;;;;;;12.25;10.75;;;;;15.17;77.80;101409.00;146606;566;46016;-70
2024/02/28 05:43:34;;;;;;;;;15.75;14.00;;;;;15.19;77.64;101414.25;146608;675;46020;-72
2024/02/28 05:46:36;;;;;;;;;16.00;14.25;;;;;15.24;77.07;101410.16;146606;658;46016;-86
2024/02/28 05:49:44;;;;;;;;;13.50;12.75;;;;;15.30;76.22;101405.19;146610;600;46020;-82
2024/02/28 05:52:45;;;;;;;;;18.00;13.25;;;;;15.37;76.00;101419.41;146621;619;46016;-80
2024/02/28 05:55:49;;;;;;;;;11.50;11.00;;;;;15.36;75.68;101408.06;146607;593;46020;-79
2024/02/28 05:58:54;;;;;;;;;16.25;15.00;;;;;15.51;75.74;101439.16;146605;672;46017;-80
2024/02/28 06:01:59;;;;;;;;;14.50;14.50;;;;;15.56;76.20;101432.41;146609;610;46010;-84
2024/02/28 06:04:57;;;;;;;;;17.75;15.50;;;;;15.61;75.33;101430.00;146608;641;45916;-79
2024/02/28 06:07:49;;;;;;;;;17.00;15.00;;;;;15.62;74.97;101422.22;146603;635;46020;-73
2024/02/28 06:10:46;;;;;;;;;24.50;18.00;;;;;15.68;75.04;101424.22;146606;592;46012;-72
2024/02/28 06:13:41;;;;;;;;;18.25;15.25;;;;;14.21;74.24;101172.44;146612;584;46011;-72
2024/02/28 06:16:49;;;;;;;;;43.25;33.50;;;;;15.79;73.66;101432.50;146604;571;46016;-73
2024/02/28 06:19:46;;;;;;;;;15.25;12.00;;;;;15.81;73.93;101442.22;146610;572;46010;-75
2024/02/28 06:22:45;;;;;;;;;21.50;19.00;;;;;15.88;73.60;101443.34;146608;566;46016;-73
2024/02/28 06:25:44;;;;;;;;;18.00;15.25;;;;;15.91;73.07;101448.72;146610;604;46010;-77
2024/02/28 06:28:42;;;;;;;;;14.25;12.00;;;;;15.93;73.38;101447.06;146608;564;46014;-77
2024/02/28 06:31:38;;;;;;;;;23.75;17.00;;;;;15.97;73.29;101448.06;146614;607;45020;-75
2024/02/28 06:34:34;;;;;;;;;17.00;15.00;;;;;16.00;73.33;101442.97;146607;569;46012;-74
2024/02/28 06:37:35;;;;;;;;;19.75;17.50;;;;;16.05;72.82;101451.91;146605;614;46010;-77
2024/02/28 06:40:51;;;;;;;;;19.75;13.00;;;;;16.10;73.42;101456.47;146603;692;46014;-74
2024/02/28 06:43:45;;;;;;;;;18.00;15.00;;;;;16.15;73.03;101461.91;146610;675;46021;-70
2024/02/28 06:46:44;;;;;;;;;19.00;15.75;;;;;16.17;71.89;101465.47;146606;563;46016;-71
2024/02/28 06:49:36;;;;;;;;;15.75;14.25;;;;;16.19;71.35;101458.56;146606;593;47011;-74
2024/02/28 06:52:44;;;;;;;;;16.25;14.00;;;;;16.23;70.98;101459.56;146603;594;46012;-73
2024/02/28 06:55:42;;;;;;;;;15.75;15.75;;;;;14.85;69.88;101222.19;146610;696;46012;-72
2024/02/28 06:58:42;;;;;;;;;13.25;10.50;;;;;16.30;69.45;101465.13;146603;602;47012;-66
2024/02/28 07:01:42;;;;;;;;;15.00;13.00;;;;;16.37;68.72;101468.88;146610;653;46020;-74
2024/02/28 07:04:46;;;;;;;;;8.00;8.00;;;;;16.42;67.08;101466.44;146606;595;46016;-74
2024/02/28 07:07:50;;;;;;;;;14.25;13.25;;;;;12.97;67.52;100860.44;146603;575;46012;-74
2024/02/28 07:10:53;;;;;;;;;17.25;15.50;;;;;16.49;67.89;101463.25;146605;573;46016;-73
2024/02/28 07:14:02;;;;;;;;;15.25;14.25;;;;;16.56;67.69;101476.63;146608;570;46010;-73
2024/02/28 07:17:01;;;;;;;;;16.75;15.75;;;;;16.62;66.29;101478.56;146606;563;46016;-72
2024/02/28 07:20:02;;;;;;;;;18.50;17.00;;;;;14.91;67.19;101170.22;146612;566;46020;-73
2024/02/28 07:22:56;;;;;;;;;16.25;14.50;;;;;16.74;67.79;101465.06;146603;599;47014;-73
2024/02/28 07:25:50;;;;;;;;;14.25;14.00;;;;;16.80;67.14;101474.09;146608;680;46020;-73
2024/02/28 07:29:01;;;;;;;;;17.00;16.00;;;;;16.91;67.93;101464.00;146603;670;46017;-80
2024/02/28 07:32:08;;;;;;;;;14.50;13.75;;;;;16.88;67.31;101447.28;146609;574;46020;-85
2024/02/28 07:35:00;;;;;;;;;18.50;14.00;;;;;17.05;66.78;101460.16;146602;580;48026;-72
2024/02/28 07:37:54;;;;;;;;;17.25;14.50;;;;;17.09;66.31;101459.44;146602;640;46020;-73
2024/02/28 07:40:57;;;;;;;;;15.25;14.25;;;;;17.09;66.57;101469.91;146605;580;46012;-73
2024/02/28 07:44:02;;;;;;;;;16.50;14.00;;;;;17.15;66.84;101468.38;146608;624;46020;-72
2024/02/28 07:46:57;;;;;;;;;16.50;14.75;;;;;17.19;66.82;101470.25;146607;569;46016;-71
2024/02/28 07:49:51;;;;;;;;;16.50;15.00;;;;;17.24;66.73;101473.94;146609;616;46011;-73
2024/02/28 07:53:12;;;;;;;;;14.00;12.75;;;;;15.49;66.06;101166.41;146604;569;46012;-72
2024/02/28 07:56:23;;;;;;;;;16.25;14.75;;;;;17.26;66.79;101486.28;146610;663;47011;-70
2024/02/28 07:59:46;;;;;;;;;19.00;16.50;;;;;17.32;66.71;101482.97;146608;604;46012;-70
2024/02/28 08:02:54;;;;;;;;;19.00;14.50;;;;;15.75;67.46;101204.00;146608;689;47010;-72
2024/02/28 08:05:55;;;;;;;;;16.00;14.75;;;;;17.41;67.98;101472.78;146603;577;46012;-71
2024/02/28 08:08:53;;;;;;;;;18.50;16.75;;;;;17.39;68.35;101473.59;146607;677;46010;-71
2024/02/28 08:11:46;;;;;;;;;15.50;14.75;;;;;17.41;68.15;101475.41;146605;652;46017;-72
2024/02/28 08:14:42;;;;;;;;;24.25;22.25;;;;;17.45;68.03;101471.19;146611;584;46020;-73
2024/02/28 08:17:45;;;;;;;;;13.50;12.50;;;;;17.45;67.77;101474.69;146603;576;47012;-69
2024/02/28 08:20:44;;;;;;;;;16.50;15.00;;;;;17.44;67.20;101482.50;146607;590;46020;-68
2024/02/28 08:23:44;;;;;;;;;21.00;18.50;;;;;17.53;68.17;101472.34;146605;600;46016;-72
2024/02/28 08:26:42;;;;;;;;;16.75;15.75;;;;;17.58;67.48;101483.88;146608;608;47011;-73
2024/02/28 08:29:55;;;;;;;;;18.50;15.50;;;;;17.52;65.98;101474.06;146605;639;47014;-71
2024/02/28 08:32:49;;;;;;;;;12.00;11.75;;;;;17.55;66.72;101471.56;146608;579;47010;-70
2024/02/28 08:35:49;;;;;;;;;16.50;15.00;;;;;17.57;66.26;101463.75;146607;574;46016;-68
2024/02/28 08:38:54;;;;;;;;;15.50;15.00;;;;;17.60;67.16;101456.00;146601;576;46020;-71
2024/02/28 08:41:56;;;;;;;;;19.50;16.50;;;;;17.77;67.13;101465.34;146606;638;46030;-67
2024/02/28 08:44:58;;;;;;;;;18.00;16.00;;;;;17.93;66.26;101473.72;146610;576;46010;-67
2024/02/28 08:47:52;;;;;;;;;16.25;16.00;;;;;18.06;65.92;101460.16;146602;613;46014;-71
2024/02/28 08:50:54;;;;;;;;;16.00;15.00;;;;;16.66;67.69;101204.66;146609;624;46010;-72
2024/02/28 08:53:52;;;;;;;;;19.00;15.75;;;;;18.31;67.36;101463.56;146605;675;46014;-71
2024/02/28 08:56:56;;;;;;;;;16.00;14.25;;;;;18.37;65.51;101469.03;146606;656;46024;-70
2024/02/28 09:00:03;;;;;;;;;16.00;13.00;;;;;18.31;66.03;101471.44;146604;620;46914;-71
2024/02/28 09:03:21;;;;;;;;;19.00;18.25;;;;;18.21;65.93;101478.16;146610;626;46011;-70
2024/02/28 09:06:43;;;;;;;;;12.75;11.50;;;;;14.41;65.66;100840.25;146605;573;46016;-70
2024/02/28 09:09:44;;;;;;;;;17.25;14.25;;;;;18.02;65.37;101476.66;146602;575;46010;-69
2024/02/28 09:12:40;;;;;;;;;18.75;16.50;;;;;18.04;64.29;101471.44;146605;579;46016;-75
2024/02/28 09:16:01;;;;;;;;;17.75;17.75;;;;;18.01;64.85;101467.00;146611;721;46020;-68
2024/02/28 09:19:04;;;;;;;;;17.25;15.50;;;;;18.30;65.16;101478.44;146606;720;46017;-68
2024/02/28 09:22:27;;;;;;;;;14.50;12.00;;;;;18.54;64.30;101477.44;146608;591;46010;-67
2024/02/28 09:25:24;;;;;;;;;16.25;15.25;;;;;18.65;63.01;101482.16;146603;652;46914;-67
2024/02/28 09:28:23;;;;;;;;;13.00;12.75;;;;;18.60;63.03;101481.13;146611;570;46012;-70
2024/02/28 09:31:23;;;;;;;;;17.25;16.00;;;;;18.52;62.02;101474.75;146604;580;47014;-68
2024/02/28 09:34:37;;;;;;;;;19.00;13.75;;;;;15.55;62.21;100954.06;146606;671;46012;-68
2024/02/28 09:37:36;;;;;;;;;15.50;12.75;;;;;18.60;61.15;101480.25;146607;657;45912;-69
2024/02/28 09:40:43;;;;;;;;;19.25;16.25;;;;;18.76;62.78;101474.66;146605;571;46011;-70
2024/02/28 09:43:56;;;;;;;;;16.75;14.00;;;;;18.97;62.79;101470.84;146608;653;46016;-70
2024/02/28 09:46:57;;;;;;;;;15.75;15.75;;;;;19.17;60.33;101459.16;146609;564;46020;-71
2024/02/28 09:50:05;;;;;;;;;15.00;13.50;;;;;19.27;55.55;101445.41;146605;571;46017;-70
2024/02/28 09:53:05;;;;;;;;;15.75;12.75;;;;;19.29;57.23;101459.50;146610;620;46020;-64
2024/02/28 09:56:11;;;;;;;;;14.75;12.75;;;;;19.37;55.73;101463.22;146609;598;46017;-70
2024/02/28 09:59:19;;;;;;;;;16.25;15.75;;;;;19.35;55.62;101462.31;146608;632;46020;-70
2024/02/28 10:02:24;;;;;;;;;14.50;11.50;;;;;19.24;53.17;101453.22;146601;567;47012;-71
2024/02/28 10:05:30;;;;;;;;;15.25;13.50;;;;;19.11;55.57;101448.47;146610;599;46020;-69
2024/02/28 10:08:27;;;;;;;;;10.67;10.33;;;;;19.12;57.75;101438.00;146605;614;46016;-69
2024/02/28 10:11:47;;;;;;;;;;;;;;;;;;;;;
2024/02/28 10:14:49;;;;;;;;;18.25;15.00;;;;;19.31;56.21;101430.59;146606;583;46016;-71
2024/02/28 10:17:49;;;;;;;;;15.75;14.00;;;;;19.35;55.64;101428.12;146612;660;46010;-68
2024/02/28 10:21:01;;;;;;;;;14.00;12.50;;;;;19.44;55.50;101429.19;146606;565;46016;-71
2024/02/28 10:24:02;;;;;;;;;13.75;13.25;;;;;19.44;52.93;101432.75;146604;581;47012;-72
2024/02/28 10:26:55;;;;;;;;;17.50;16.00;;;;;19.51;55.67;101412.75;146606;617;46016;-74
2024/02/28 10:29:53;;;;;;;;;13.00;13.00;;;;;19.45;55.46;101431.88;146608;614;46020;-72
2024/02/28 10:32:58;;;;;;;;;12.00;11.50;;;;;19.41;55.01;101426.47;146605;622;46017;-70
2024/02/28 10:36:15;;;;;;;;;14.25;13.75;;;;;19.49;57.41;101417.06;146603;588;47010;-73
2024/02/28 10:39:15;;;;;;;;;18.00;15.75;;;;;19.71;57.01;101408.88;146603;641;47012;-73
2024/02/28 10:42:15;;;;;;;;;15.00;15.00;;;;;19.92;56.89;101399.75;146601;617;47010;-74
2024/02/28 10:45:29;;;;;;;;;;;;;;;;;;;;;
2024/02/28 10:48:31;;;;;;;;;16.00;14.00;;;;;20.17;55.80;101390.69;146606;729;47010;-71
2024/02/28 10:51:37;;;;;;;;;13.75;13.00;;;;;20.19;55.80;101384.59;146604;683;46012;-73
2024/02/28 10:54:38;;;;;;;;;14.00;14.00;;;;;20.30;57.87;101396.25;146608;590;46021;-74
2024/02/28 10:57:31;;;;;;;;;12.00;12.00;;;;;20.45;56.99;101389.53;146605;674;46913;-76
2024/02/28 11:00:26;;;;;;;;;16.67;15.33;;;;;20.65;51.42;101398.75;146609;691;46010;-71
2024/02/28 11:03:27;;;;;;;;;17.00;14.00;;;;;20.68;53.96;101388.28;146608;639;46016;-74
2024/02/28 11:06:59;;;;;;;;;15.50;14.00;;;;;17.54;53.71;100850.09;146608;564;46020;-71
2024/02/28 11:09:58;;;;;;;;;15.25;15.25;;;;;20.40;52.70;101376.25;146604;588;46012;-73
2024/02/28 11:13:11;;;;;;;;;14.75;12.00;;;;;20.36;52.42;101360.38;146603;655;47020;-73
2024/02/28 11:16:17;;;;;;;;;18.50;15.75;;;;;20.34;53.37;101362.94;146604;687;46016;-71
2024/02/28 11:19:22;;;;;;;;;18.00;14.67;;;;;20.31;53.61;101383.97;146608;601;46010;-71
2024/02/28 11:22:43;;;;;;;;;18.25;16.50;;;;;20.28;54.44;101369.00;146601;646;47012;-71
2024/02/28 11:25:42;;;;;;;;;15.00;13.50;;;;;20.24;53.69;101371.53;146607;672;46010;-71
2024/02/28 11:28:41;;;;;;;;;14.75;13.75;;;;;20.17;53.17;101366.97;146601;564;47012;-72
2024/02/28 11:31:40;;;;;;;;;14.75;12.00;;;;;20.06;55.11;101365.00;146607;639;47011;-69
2024/02/28 11:34:40;;;;;;;;;15.00;14.00;;;;;19.93;53.77;101362.03;146604;598;46016;-71
2024/02/28 11:37:46;;;;;;;;;12.67;10.67;;;;;19.88;54.91;101355.81;146608;626;46012;-72
2024/02/28 11:41:06;;;;;;;;;;;;;;;;;;;;;
2024/02/28 11:44:09;;;;;;;;;15.33;12.67;;;;;19.89;56.61;101357.56;146707;567;46022;-71
2024/02/28 11:47:05;;;;;;;;;12.33;11.67;;;;;19.98;57.52;101363.03;146619;590;46016;-71
2024/02/28 11:50:18;;;;;;;;;15.00;10.75;;;;;20.01;56.60;101348.19;146622;602;46021;-71
2024/02/28 11:53:19;;;;;;;;;13.00;10.67;;;;;20.18;56.62;101352.94;146610;602;46014;-72
2024/02/28 11:56:26;;;;;;;;;14.00;12.00;;;;;20.31;54.60;101347.09;146621;578;46011;-71
2024/02/28 11:59:35;;;;;;;;;14.00;12.25;;;;;20.38;53.93;101350.75;146615;677;46016;-68
2024/02/28 12:02:37;;;;;;;;;13.75;10.25;;;;;20.30;54.41;101367.28;146622;574;47010;-67
2024/02/28 12:05:31;;;;;;;;;15.67;13.00;;;;;20.21;54.33;101356.53;146618;648;46012;-70
2024/02/28 12:08:37;;;;;;;;;12.00;10.33;;;;;20.31;54.77;101326.00;146620;565;47020;-70
2024/02/28 12:11:30;;;;;;;;;12.33;10.67;;;;;20.43;53.87;101336.81;146617;597;46013;-72
2024/02/28 12:14:31;;;;;;;;;11.67;10.00;;;;;20.57;55.38;101347.69;146620;587;46020;-72
2024/02/28 12:17:34;;;;;;;;;12.00;11.67;;;;;20.58;54.51;101341.53;146618;573;46016;-72
2024/02/28 12:20:37;;;;;;;;;13.33;12.33;;;;;20.33;53.29;101348.00;146620;571;47012;-68
2024/02/28 12:23:40;;;;;;;;;18.25;15.00;;;;;19.94;55.31;101346.28;146618;596;46012;-71
2024/02/28 12:26:52;;;;;;;;;13.33;12.33;;;;;19.67;58.30;101335.13;146618;673;46021;-72
2024/02/28 12:30:05;;;;;;;;;14.00;13.00;;;;;19.47;57.92;101326.69;146619;629;46012;-72
2024/02/28 12:33:02;;;;;;;;;16.75;16.00;;;;;19.28;56.56;101354.28;146621;571;46020;-70
2024/02/28 12:35:57;;;;;;;;;11.00;10.67;;;;;19.12;56.53;101342.47;146615;577;46016;-70
2024/02/28 12:39:00;;;;;;;;;15.33;13.00;;;;;18.97;57.75;101323.66;146621;667;46020;-71
2024/02/28 12:41:56;;;;;;;;;13.67;11.33;;;;;18.88;57.76;101342.72;146618;651;46013;-70
2024/02/28 12:44:54;;;;;;;;;18.00;17.00;;;;;18.81;58.52;101323.25;146622;720;46010;-76
2024/02/28 12:48:13;;;;;;;;;;;;;;;;;;;;;
2024/02/28 12:51:21;;;;;;;;;11.00;8.50;;;;;18.69;58.91;101339.56;146617;634;46022;-67
2024/02/28 12:54:23;;;;;;;;;13.25;12.00;;;;;18.63;59.47;101328.87;146614;722;46016;-68
2024/02/28 12:57:19;;;;;;;;;16.25;13.00;;;;;18.60;59.24;101330.53;146615;585;46010;-72
2024/02/28 13:00:17;;;;;;;;;13.00;12.00;;;;;18.58;59.74;101333.09;146614;596;46014;-71
2024/02/28 13:03:17;;;;;;;;;20.75;16.50;;;;;18.48;59.49;101333.69;146617;628;45021;-71
2024/02/28 13:06:12;;;;;;;;;17.25;13.75;;;;;18.37;59.98;101336.00;146608;587;46016;-70
2024/02/28 13:09:12;;;;;;;;;20.50;17.50;;;;;18.41;60.94;101334.34;146609;563;46010;-70
2024/02/28 13:12:25;;;;;;;;;17.25;16.00;;;;;18.27;60.06;101302.44;146616;618;46013;-70
2024/02/28 13:15:28;;;;;;;;;16.00;13.00;;;;;18.32;60.12;101344.63;146619;664;46020;-70
2024/02/28 13:18:23;;;;;;;;;17.50;14.50;;;;;18.30;59.57;101325.28;146616;576;46017;-69
2024/02/28 13:21:32;;;;;;;;;15.75;12.00;;;;;18.27;59.00;101322.56;146619;584;46012;-69
2024/02/28 13:24:28;;;;;;;;;14.00;13.50;;;;;18.23;56.94;101325.09;146612;650;46016;-69
2024/02/28 13:27:33;;;;;;;;;14.50;13.25;;;;;18.18;55.90;101347.69;146613;659;47010;-70
2024/02/28 13:30:45;;;;;;;;;14.50;12.50;;;;;18.15;55.81;101326.59;146614;726;46012;-70
2024/02/28 13:33:48;;;;;;;;;7.75;7.75;;;;;18.18;55.47;101324.06;146619;661;46021;-68
2024/02/28 13:36:46;;;;;;;;;16.25;14.25;;;;;18.13;55.96;101340.50;146613;613;46012;-68
2024/02/28 13:39:46;;;;;;;;;13.75;11.25;;;;;18.08;56.33;101322.03;146617;584;46021;-65
2024/02/28 13:42:52;;;;;;;;;15.00;12.00;;;;;18.05;57.17;101331.53;146610;589;47918;-65
2024/02/28 13:46:00;;;;;;;;;15.00;14.25;;;;;18.00;57.44;101327.03;146618;600;46012;-65
2024/02/28 13:49:07;;;;;;;;;18.50;13.25;;;;;17.95;58.27;101331.25;146616;659;47014;-67
2024/02/28 13:52:12;;;;;;;;;15.75;13.00;;;;;17.86;58.94;101336.22;146613;688;46012;-64
2024/02/28 13:55:17;;;;;;;;;18.75;14.25;;;;;17.78;59.91;101328.09;146612;642;47012;-66
2024/02/28 13:58:24;;;;;;;;;10.75;10.00;;;;;17.80;60.27;101324.66;146621;570;46010;-69